sensor_id;sensor_type;location;lat;lon;timestamp;P1;durP1;ratioP1;P2;durP2;ratioP2
69783;SDS011;57054;51.978;4.498;2023-08-20T00:01:30;6.07;;;1.52;;
69783;SDS011;57054;51.978;4.498;2023-08-20T00:03:55;5.05;;;1.30;;
69783;SDS011;57054;51.978;4.498;2023-08-20T00:06:22;3.10;;;1.13;;
69783;SDS011;57054;51.978;4.498;2023-08-20T00:08:47;3.33;;;1.08;;
69783;SDS011;57054;51.978;4.498;2023-08-20T00:11:13;2.42;;;1.10;;
69783;SDS011;57054;51.978;4.498;2023-08-20T00:13:39;2.95;;;1.10;;
69783;SDS011;57054;51.978;4.498;2023-08-20T00:16:05;2.53;;;1.02;;
69783;SDS011;57054;51.978;4.498;2023-08-20T00:18:31;3.33;;;1.20;;
69783;SDS011;57054;51.978;4.498;2023-08-20T00:20:57;3.53;;;1.25;;
69783;SDS011;57054;51.978;4.498;2023-08-20T00:23:22;3.70;;;1.23;;
69783;SDS011;57054;51.978;4.498;2023-08-20T00:25:48;3.53;;;1.58;;
69783;SDS011;57054;51.978;4.498;2023-08-20T00:28:14;3.78;;;1.20;;
69783;SDS011;57054;51.978;4.498;2023-08-20T00:30:39;3.33;;;1.20;;
69783;SDS011;57054;51.978;4.498;2023-08-20T00:33:05;2.40;;;1.02;;
69783;SDS011;57054;51.978;4.498;2023-08-20T00:35:30;1.95;;;1.00;;
69783;SDS011;57054;51.978;4.498;2023-08-20T00:37:56;3.72;;;1.15;;
69783;SDS011;57054;51.978;4.498;2023-08-20T00:40:21;2.13;;;1.00;;
69783;SDS011;57054;51.978;4.498;2023-08-20T00:42:47;4.95;;;1.42;;
69783;SDS011;57054;51.978;4.498;2023-08-20T00:45:12;5.53;;;1.38;;
69783;SDS011;57054;51.978;4.498;2023-08-20T00:47:38;4.15;;;1.55;;
69783;SDS011;57054;51.978;4.498;2023-08-20T00:50:04;4.13;;;1.08;;
69783;SDS011;57054;51.978;4.498;2023-08-20T00:52:33;6.95;;;1.38;;
69783;SDS011;57054;51.978;4.498;2023-08-20T00:54:59;3.72;;;1.27;;
69783;SDS011;57054;51.978;4.498;2023-08-20T00:57:30;3.50;;;1.40;;
69783;SDS011;57054;51.978;4.498;2023-08-20T00:59:56;5.90;;;1.25;;
69783;SDS011;57054;51.978;4.498;2023-08-20T01:04:57;2.97;;;1.00;;
69783;SDS011;57054;51.978;4.498;2023-08-20T01:07:30;3.42;;;1.30;;
69783;SDS011;57054;51.978;4.498;2023-08-20T01:10:43;5.70;;;1.60;;
69783;SDS011;57054;51.978;4.498;2023-08-20T01:12:59;2.95;;;1.08;;
69783;SDS011;57054;51.978;4.498;2023-08-20T01:15:25;6.25;;;1.38;;
69783;SDS011;57054;51.978;4.498;2023-08-20T01:17:51;4.68;;;1.55;;
69783;SDS011;57054;51.978;4.498;2023-08-20T01:20:16;3.17;;;1.27;;
69783;SDS011;57054;51.978;4.498;2023-08-20T01:30:28;3.67;;;1.50;;
69783;SDS011;57054;51.978;4.498;2023-08-20T01:32:56;3.35;;;1.35;;
69783;SDS011;57054;51.978;4.498;2023-08-20T01:35:24;4.15;;;1.08;;
69783;SDS011;57054;51.978;4.498;2023-08-20T01:37:51;4.30;;;1.05;;
69783;SDS011;57054;51.978;4.498;2023-08-20T01:40:16;3.60;;;1.20;;
69783;SDS011;57054;51.978;4.498;2023-08-20T01:42:42;3.67;;;1.08;;
69783;SDS011;57054;51.978;4.498;2023-08-20T01:45:07;2.30;;;1.08;;
69783;SDS011;57054;51.978;4.498;2023-08-20T01:47:33;6.65;;;1.38;;
69783;SDS011;57054;51.978;4.498;2023-08-20T01:49:59;2.95;;;0.90;;
69783;SDS011;57054;51.978;4.498;2023-08-20T01:52:24;4.13;;;1.10;;
69783;SDS011;57054;51.978;4.498;2023-08-20T01:54:50;3.70;;;1.15;;
69783;SDS011;57054;51.978;4.498;2023-08-20T01:57:16;4.10;;;1.60;;
69783;SDS011;57054;51.978;4.498;2023-08-20T01:59:41;4.53;;;1.35;;
69783;SDS011;57054;51.978;4.498;2023-08-20T02:02:07;5.13;;;1.50;;
69783;SDS011;57054;51.978;4.498;2023-08-20T02:04:33;2.42;;;1.17;;
69783;SDS011;57054;51.978;4.498;2023-08-20T02:06:58;2.65;;;1.80;;
69783;SDS011;57054;51.978;4.498;2023-08-20T02:09:24;4.43;;;1.30;;
69783;SDS011;57054;51.978;4.498;2023-08-20T02:11:49;6.18;;;1.50;;
69783;SDS011;57054;51.978;4.498;2023-08-20T02:14:15;4.35;;;1.20;;
69783;SDS011;57054;51.978;4.498;2023-08-20T02:16:41;5.03;;;1.42;;
69783;SDS011;57054;51.978;4.498;2023-08-20T02:19:06;5.72;;;1.50;;
69783;SDS011;57054;51.978;4.498;2023-08-20T02:21:32;2.42;;;1.20;;
69783;SDS011;57054;51.978;4.498;2023-08-20T02:23:58;3.25;;;1.40;;
69783;SDS011;57054;51.978;4.498;2023-08-20T02:26:23;5.03;;;1.58;;
69783;SDS011;57054;51.978;4.498;2023-08-20T02:28:49;5.72;;;2.00;;
69783;SDS011;57054;51.978;4.498;2023-08-20T02:31:14;5.60;;;1.88;;
69783;SDS011;57054;51.978;4.498;2023-08-20T02:33:39;3.55;;;1.45;;
69783;SDS011;57054;51.978;4.498;2023-08-20T02:36:05;3.08;;;1.70;;
69783;SDS011;57054;51.978;4.498;2023-08-20T02:38:30;2.38;;;1.00;;
69783;SDS011;57054;51.978;4.498;2023-08-20T02:40:56;3.97;;;1.40;;
69783;SDS011;57054;51.978;4.498;2023-08-20T02:43:22;1.85;;;1.25;;
69783;SDS011;57054;51.978;4.498;2023-08-20T02:45:47;5.95;;;1.35;;
69783;SDS011;57054;51.978;4.498;2023-08-20T02:48:13;4.05;;;1.55;;
69783;SDS011;57054;51.978;4.498;2023-08-20T02:50:39;6.38;;;1.35;;
69783;SDS011;57054;51.978;4.498;2023-08-20T02:53:05;3.67;;;1.40;;
69783;SDS011;57054;51.978;4.498;2023-08-20T02:55:31;2.92;;;1.42;;
69783;SDS011;57054;51.978;4.498;2023-08-20T02:57:57;3.92;;;1.30;;
69783;SDS011;57054;51.978;4.498;2023-08-20T03:00:23;5.03;;;1.95;;
69783;SDS011;57054;51.978;4.498;2023-08-20T03:02:48;4.18;;;1.42;;
69783;SDS011;57054;51.978;4.498;2023-08-20T03:05:14;1.35;;;0.90;;
69783;SDS011;57054;51.978;4.498;2023-08-20T03:07:40;3.17;;;1.33;;
69783;SDS011;57054;51.978;4.498;2023-08-20T03:10:05;3.05;;;1.20;;
69783;SDS011;57054;51.978;4.498;2023-08-20T03:12:31;3.25;;;1.42;;
69783;SDS011;57054;51.978;4.498;2023-08-20T03:14:57;5.72;;;1.40;;
69783;SDS011;57054;51.978;4.498;2023-08-20T03:17:24;5.22;;;1.88;;
69783;SDS011;57054;51.978;4.498;2023-08-20T03:19:53;5.35;;;1.38;;
69783;SDS011;57054;51.978;4.498;2023-08-20T03:22:21;2.97;;;1.50;;
69783;SDS011;57054;51.978;4.498;2023-08-20T03:24:47;4.50;;;1.55;;
69783;SDS011;57054;51.978;4.498;2023-08-20T03:27:12;3.58;;;1.40;;
69783;SDS011;57054;51.978;4.498;2023-08-20T03:29:37;4.90;;;2.15;;
69783;SDS011;57054;51.978;4.498;2023-08-20T03:32:03;2.13;;;1.23;;
69783;SDS011;57054;51.978;4.498;2023-08-20T03:34:29;2.47;;;1.08;;
69783;SDS011;57054;51.978;4.498;2023-08-20T03:36:54;2.75;;;1.20;;
69783;SDS011;57054;51.978;4.498;2023-08-20T03:39:19;3.38;;;1.42;;
69783;SDS011;57054;51.978;4.498;2023-08-20T03:41:45;3.50;;;1.13;;
69783;SDS011;57054;51.978;4.498;2023-08-20T03:44:10;3.10;;;1.48;;
69783;SDS011;57054;51.978;4.498;2023-08-20T03:46:35;5.35;;;1.92;;
69783;SDS011;57054;51.978;4.498;2023-08-20T03:49:01;9.00;;;1.55;;
69783;SDS011;57054;51.978;4.498;2023-08-20T03:51:26;4.57;;;1.77;;
69783;SDS011;57054;51.978;4.498;2023-08-20T03:53:52;2.88;;;1.23;;
69783;SDS011;57054;51.978;4.498;2023-08-20T03:56:20;2.22;;;1.20;;
69783;SDS011;57054;51.978;4.498;2023-08-20T03:58:45;4.28;;;1.25;;
69783;SDS011;57054;51.978;4.498;2023-08-20T04:01:11;2.10;;;1.30;;
69783;SDS011;57054;51.978;4.498;2023-08-20T04:03:36;3.75;;;1.20;;
69783;SDS011;57054;51.978;4.498;2023-08-20T04:06:02;4.95;;;1.58;;
69783;SDS011;57054;51.978;4.498;2023-08-20T04:08:28;5.03;;;1.55;;
69783;SDS011;57054;51.978;4.498;2023-08-20T04:10:54;4.65;;;1.23;;
69783;SDS011;57054;51.978;4.498;2023-08-20T04:13:20;4.25;;;1.38;;
69783;SDS011;57054;51.978;4.498;2023-08-20T04:15:45;6.13;;;1.85;;
69783;SDS011;57054;51.978;4.498;2023-08-20T04:18:11;4.25;;;1.52;;
69783;SDS011;57054;51.978;4.498;2023-08-20T04:20:36;5.05;;;1.73;;
69783;SDS011;57054;51.978;4.498;2023-08-20T04:23:02;3.45;;;1.30;;
69783;SDS011;57054;51.978;4.498;2023-08-20T04:25:27;4.93;;;1.50;;
69783;SDS011;57054;51.978;4.498;2023-08-20T04:27:53;3.10;;;1.50;;
69783;SDS011;57054;51.978;4.498;2023-08-20T04:30:18;3.28;;;1.50;;
69783;SDS011;57054;51.978;4.498;2023-08-20T04:32:43;4.63;;;1.60;;
69783;SDS011;57054;51.978;4.498;2023-08-20T04:35:09;3.33;;;1.50;;
69783;SDS011;57054;51.978;4.498;2023-08-20T04:37:35;4.38;;;1.95;;
69783;SDS011;57054;51.978;4.498;2023-08-20T04:40:00;3.78;;;1.50;;
69783;SDS011;57054;51.978;4.498;2023-08-20T04:42:26;4.90;;;1.35;;
69783;SDS011;57054;51.978;4.498;2023-08-20T04:44:51;3.42;;;1.55;;
69783;SDS011;57054;51.978;4.498;2023-08-20T04:47:17;5.80;;;1.50;;
69783;SDS011;57054;51.978;4.498;2023-08-20T04:49:42;6.22;;;2.22;;
69783;SDS011;57054;51.978;4.498;2023-08-20T04:52:08;4.53;;;1.70;;
69783;SDS011;57054;51.978;4.498;2023-08-20T04:54:34;3.00;;;1.60;;
69783;SDS011;57054;51.978;4.498;2023-08-20T04:56:59;4.50;;;1.45;;
69783;SDS011;57054;51.978;4.498;2023-08-20T04:59:24;6.63;;;1.60;;
69783;SDS011;57054;51.978;4.498;2023-08-20T05:01:51;3.75;;;1.85;;
69783;SDS011;57054;51.978;4.498;2023-08-20T05:04:16;2.63;;;1.40;;
69783;SDS011;57054;51.978;4.498;2023-08-20T05:06:42;5.18;;;1.67;;
69783;SDS011;57054;51.978;4.498;2023-08-20T05:09:07;5.50;;;1.52;;
69783;SDS011;57054;51.978;4.498;2023-08-20T05:11:33;3.47;;;1.50;;
69783;SDS011;57054;51.978;4.498;2023-08-20T05:13:58;2.72;;;1.33;;
69783;SDS011;57054;51.978;4.498;2023-08-20T05:16:24;3.90;;;1.60;;
69783;SDS011;57054;51.978;4.498;2023-08-20T05:18:49;4.45;;;1.67;;
69783;SDS011;57054;51.978;4.498;2023-08-20T05:21:15;5.57;;;1.65;;
69783;SDS011;57054;51.978;4.498;2023-08-20T05:23:40;3.15;;;1.40;;
69783;SDS011;57054;51.978;4.498;2023-08-20T05:26:06;2.53;;;1.48;;
69783;SDS011;57054;51.978;4.498;2023-08-20T05:28:32;6.20;;;1.65;;
69783;SDS011;57054;51.978;4.498;2023-08-20T05:30:58;4.88;;;1.80;;
69783;SDS011;57054;51.978;4.498;2023-08-20T05:33:24;5.32;;;1.55;;
69783;SDS011;57054;51.978;4.498;2023-08-20T05:35:49;3.38;;;1.50;;
69783;SDS011;57054;51.978;4.498;2023-08-20T05:38:15;3.40;;;1.67;;
69783;SDS011;57054;51.978;4.498;2023-08-20T05:40:40;4.85;;;1.63;;
69783;SDS011;57054;51.978;4.498;2023-08-20T05:43:06;6.25;;;2.10;;
69783;SDS011;57054;51.978;4.498;2023-08-20T05:45:33;5.97;;;2.40;;
69783;SDS011;57054;51.978;4.498;2023-08-20T05:47:58;3.80;;;1.50;;
69783;SDS011;57054;51.978;4.498;2023-08-20T05:50:24;2.78;;;1.42;;
69783;SDS011;57054;51.978;4.498;2023-08-20T05:52:49;5.13;;;1.92;;
69783;SDS011;57054;51.978;4.498;2023-08-20T05:55:15;8.32;;;1.67;;
69783;SDS011;57054;51.978;4.498;2023-08-20T05:57:41;5.38;;;1.80;;
69783;SDS011;57054;51.978;4.498;2023-08-20T06:00:08;3.55;;;1.80;;
69783;SDS011;57054;51.978;4.498;2023-08-20T06:02:34;5.03;;;1.88;;
69783;SDS011;57054;51.978;4.498;2023-08-20T06:04:59;5.68;;;2.10;;
69783;SDS011;57054;51.978;4.498;2023-08-20T06:07:25;8.38;;;2.30;;
69783;SDS011;57054;51.978;4.498;2023-08-20T06:09:50;4.63;;;1.92;;
69783;SDS011;57054;51.978;4.498;2023-08-20T06:12:16;5.75;;;1.98;;
69783;SDS011;57054;51.978;4.498;2023-08-20T06:14:42;4.88;;;1.75;;
69783;SDS011;57054;51.978;4.498;2023-08-20T06:17:07;5.90;;;1.85;;
69783;SDS011;57054;51.978;4.498;2023-08-20T06:19:33;4.38;;;1.73;;
69783;SDS011;57054;51.978;4.498;2023-08-20T06:21:59;4.28;;;1.90;;
69783;SDS011;57054;51.978;4.498;2023-08-20T06:24:24;4.30;;;1.67;;
69783;SDS011;57054;51.978;4.498;2023-08-20T06:26:50;4.55;;;1.92;;
69783;SDS011;57054;51.978;4.498;2023-08-20T06:29:16;4.30;;;1.55;;
69783;SDS011;57054;51.978;4.498;2023-08-20T06:31:41;5.40;;;1.60;;
69783;SDS011;57054;51.978;4.498;2023-08-20T06:34:07;3.80;;;1.90;;
69783;SDS011;57054;51.978;4.498;2023-08-20T06:36:32;3.92;;;1.55;;
69783;SDS011;57054;51.978;4.498;2023-08-20T06:38:58;5.63;;;1.88;;
69783;SDS011;57054;51.978;4.498;2023-08-20T06:41:23;5.15;;;1.75;;
69783;SDS011;57054;51.978;4.498;2023-08-20T06:43:48;3.00;;;1.48;;
69783;SDS011;57054;51.978;4.498;2023-08-20T06:46:14;3.90;;;1.60;;
69783;SDS011;57054;51.978;4.498;2023-08-20T06:48:40;7.72;;;2.25;;
69783;SDS011;57054;51.978;4.498;2023-08-20T06:51:10;5.32;;;1.55;;
69783;SDS011;57054;51.978;4.498;2023-08-20T06:53:37;6.40;;;1.83;;
69783;SDS011;57054;51.978;4.498;2023-08-20T06:56:02;4.03;;;1.40;;
69783;SDS011;57054;51.978;4.498;2023-08-20T06:58:28;4.97;;;1.85;;
69783;SDS011;57054;51.978;4.498;2023-08-20T07:00:54;8.18;;;1.77;;
69783;SDS011;57054;51.978;4.498;2023-08-20T07:03:19;3.70;;;1.63;;
69783;SDS011;57054;51.978;4.498;2023-08-20T07:05:45;3.75;;;1.20;;
69783;SDS011;57054;51.978;4.498;2023-08-20T07:08:10;9.45;;;2.25;;
69783;SDS011;57054;51.978;4.498;2023-08-20T07:10:35;6.93;;;1.60;;
69783;SDS011;57054;51.978;4.498;2023-08-20T07:13:01;4.20;;;1.45;;
69783;SDS011;57054;51.978;4.498;2023-08-20T07:15:27;8.77;;;1.83;;
69783;SDS011;57054;51.978;4.498;2023-08-20T07:17:52;5.15;;;1.50;;
69783;SDS011;57054;51.978;4.498;2023-08-20T07:20:17;9.95;;;2.10;;
69783;SDS011;57054;51.978;4.498;2023-08-20T07:22:43;5.57;;;2.28;;
69783;SDS011;57054;51.978;4.498;2023-08-20T07:25:08;5.65;;;1.80;;
69783;SDS011;57054;51.978;4.498;2023-08-20T07:27:34;8.25;;;2.45;;
69783;SDS011;57054;51.978;4.498;2023-08-20T07:29:59;5.22;;;1.75;;
69783;SDS011;57054;51.978;4.498;2023-08-20T07:32:24;3.13;;;1.60;;
69783;SDS011;57054;51.978;4.498;2023-08-20T07:34:50;11.90;;;2.58;;
69783;SDS011;57054;51.978;4.498;2023-08-20T07:37:15;4.72;;;1.88;;
69783;SDS011;57054;51.978;4.498;2023-08-20T07:39:41;5.90;;;1.73;;
69783;SDS011;57054;51.978;4.498;2023-08-20T07:42:17;7.18;;;1.95;;
69783;SDS011;57054;51.978;4.498;2023-08-20T07:44:43;4.50;;;1.50;;
69783;SDS011;57054;51.978;4.498;2023-08-20T07:47:08;2.45;;;1.08;;
69783;SDS011;57054;51.978;4.498;2023-08-20T07:49:34;8.15;;;1.83;;
69783;SDS011;57054;51.978;4.498;2023-08-20T07:51:59;5.43;;;1.75;;
69783;SDS011;57054;51.978;4.498;2023-08-20T07:54:24;6.03;;;1.90;;
69783;SDS011;57054;51.978;4.498;2023-08-20T07:56:50;3.08;;;1.30;;
69783;SDS011;57054;51.978;4.498;2023-08-20T07:59:15;6.65;;;1.90;;
69783;SDS011;57054;51.978;4.498;2023-08-20T08:01:41;7.50;;;1.80;;
69783;SDS011;57054;51.978;4.498;2023-08-20T08:04:06;10.38;;;2.60;;
69783;SDS011;57054;51.978;4.498;2023-08-20T08:06:32;4.43;;;1.80;;
69783;SDS011;57054;51.978;4.498;2023-08-20T08:08:57;3.95;;;1.70;;
69783;SDS011;57054;51.978;4.498;2023-08-20T08:11:39;5.68;;;2.17;;
69783;SDS011;57054;51.978;4.498;2023-08-20T08:14:05;9.85;;;2.28;;
69783;SDS011;57054;51.978;4.498;2023-08-20T08:16:30;8.30;;;2.20;;
69783;SDS011;57054;51.978;4.498;2023-08-20T08:18:56;7.38;;;1.80;;
69783;SDS011;57054;51.978;4.498;2023-08-20T08:21:21;6.93;;;1.65;;
69783;SDS011;57054;51.978;4.498;2023-08-20T08:23:47;5.53;;;2.30;;
69783;SDS011;57054;51.978;4.498;2023-08-20T08:26:12;4.95;;;1.63;;
69783;SDS011;57054;51.978;4.498;2023-08-20T08:28:37;5.95;;;1.85;;
69783;SDS011;57054;51.978;4.498;2023-08-20T08:31:03;6.60;;;1.70;;
69783;SDS011;57054;51.978;4.498;2023-08-20T08:33:28;6.32;;;1.77;;
69783;SDS011;57054;51.978;4.498;2023-08-20T08:35:54;5.40;;;1.92;;
69783;SDS011;57054;51.978;4.498;2023-08-20T08:38:19;5.55;;;1.73;;
69783;SDS011;57054;51.978;4.498;2023-08-20T08:40:44;6.63;;;1.60;;
69783;SDS011;57054;51.978;4.498;2023-08-20T08:43:10;4.93;;;1.77;;
69783;SDS011;57054;51.978;4.498;2023-08-20T08:45:41;7.85;;;2.03;;
69783;SDS011;57054;51.978;4.498;2023-08-20T08:48:10;7.43;;;2.25;;
69783;SDS011;57054;51.978;4.498;2023-08-20T08:50:36;4.40;;;1.98;;
69783;SDS011;57054;51.978;4.498;2023-08-20T08:53:01;6.00;;;1.70;;
69783;SDS011;57054;51.978;4.498;2023-08-20T08:55:27;4.03;;;1.52;;
69783;SDS011;57054;51.978;4.498;2023-08-20T08:57:53;7.50;;;1.90;;
69783;SDS011;57054;51.978;4.498;2023-08-20T09:00:18;8.30;;;1.90;;
69783;SDS011;57054;51.978;4.498;2023-08-20T09:02:43;4.82;;;2.20;;
69783;SDS011;57054;51.978;4.498;2023-08-20T09:05:09;7.00;;;1.85;;
69783;SDS011;57054;51.978;4.498;2023-08-20T09:07:34;7.50;;;1.50;;
69783;SDS011;57054;51.978;4.498;2023-08-20T09:10:00;4.82;;;1.60;;
69783;SDS011;57054;51.978;4.498;2023-08-20T09:12:25;2.70;;;1.52;;
69783;SDS011;57054;51.978;4.498;2023-08-20T09:14:51;5.00;;;1.55;;
69783;SDS011;57054;51.978;4.498;2023-08-20T09:17:17;3.72;;;1.20;;
69783;SDS011;57054;51.978;4.498;2023-08-20T09:19:46;4.53;;;1.10;;
69783;SDS011;57054;51.978;4.498;2023-08-20T09:22:12;4.97;;;1.50;;
69783;SDS011;57054;51.978;4.498;2023-08-20T09:24:40;3.85;;;1.10;;
69783;SDS011;57054;51.978;4.498;2023-08-20T09:27:07;3.67;;;1.40;;
69783;SDS011;57054;51.978;4.498;2023-08-20T09:29:33;4.20;;;1.33;;
69783;SDS011;57054;51.978;4.498;2023-08-20T09:32:09;7.68;;;2.30;;
69783;SDS011;57054;51.978;4.498;2023-08-20T09:34:40;4.55;;;1.88;;
69783;SDS011;57054;51.978;4.498;2023-08-20T09:37:09;3.75;;;1.73;;
69783;SDS011;57054;51.978;4.498;2023-08-20T09:39:38;5.40;;;1.75;;
69783;SDS011;57054;51.978;4.498;2023-08-20T09:42:04;4.53;;;1.77;;
69783;SDS011;57054;51.978;4.498;2023-08-20T09:44:34;3.20;;;1.20;;
69783;SDS011;57054;51.978;4.498;2023-08-20T09:47:05;9.80;;;1.73;;
69783;SDS011;57054;51.978;4.498;2023-08-20T09:49:32;4.18;;;1.10;;
69783;SDS011;57054;51.978;4.498;2023-08-20T09:52:03;4.65;;;1.50;;
69783;SDS011;57054;51.978;4.498;2023-08-20T09:54:34;5.15;;;1.27;;
69783;SDS011;57054;51.978;4.498;2023-08-20T09:57:07;5.13;;;1.90;;
69783;SDS011;57054;51.978;4.498;2023-08-20T09:59:39;2.78;;;1.20;;
69783;SDS011;57054;51.978;4.498;2023-08-20T10:02:06;3.72;;;1.30;;
69783;SDS011;57054;51.978;4.498;2023-08-20T10:04:37;2.33;;;1.10;;
69783;SDS011;57054;51.978;4.498;2023-08-20T10:07:02;2.65;;;1.08;;
69783;SDS011;57054;51.978;4.498;2023-08-20T10:09:28;3.58;;;1.20;;
69783;SDS011;57054;51.978;4.498;2023-08-20T10:11:54;3.80;;;1.25;;
69783;SDS011;57054;51.978;4.498;2023-08-20T10:14:19;4.22;;;1.42;;
69783;SDS011;57054;51.978;4.498;2023-08-20T10:16:45;6.18;;;1.20;;
69783;SDS011;57054;51.978;4.498;2023-08-20T10:19:11;7.00;;;1.42;;
69783;SDS011;57054;51.978;4.498;2023-08-20T10:21:42;6.07;;;1.27;;
69783;SDS011;57054;51.978;4.498;2023-08-20T10:24:09;5.78;;;1.50;;
69783;SDS011;57054;51.978;4.498;2023-08-20T10:26:35;3.25;;;1.10;;
69783;SDS011;57054;51.978;4.498;2023-08-20T10:32:12;4.68;;;1.27;;
69783;SDS011;57054;51.978;4.498;2023-08-20T10:34:42;4.68;;;1.45;;
69783;SDS011;57054;51.978;4.498;2023-08-20T10:37:21;2.65;;;1.35;;
69783;SDS011;57054;51.978;4.498;2023-08-20T10:39:55;6.85;;;1.15;;
69783;SDS011;57054;51.978;4.498;2023-08-20T10:42:28;6.20;;;1.02;;
69783;SDS011;57054;51.978;4.498;2023-08-20T10:47:37;2.60;;;0.90;;
69783;SDS011;57054;51.978;4.498;2023-08-20T10:50:07;3.53;;;0.93;;
69783;SDS011;57054;51.978;4.498;2023-08-20T10:52:46;2.65;;;0.90;;
69783;SDS011;57054;51.978;4.498;2023-08-20T10:55:13;5.82;;;1.17;;
69783;SDS011;57054;51.978;4.498;2023-08-20T10:57:48;4.07;;;1.10;;
69783;SDS011;57054;51.978;4.498;2023-08-20T11:00:20;3.58;;;0.95;;
69783;SDS011;57054;51.978;4.498;2023-08-20T11:02:46;4.22;;;1.02;;
69783;SDS011;57054;51.978;4.498;2023-08-20T11:05:15;2.35;;;1.08;;
69783;SDS011;57054;51.978;4.498;2023-08-20T11:07:46;6.03;;;1.20;;
69783;SDS011;57054;51.978;4.498;2023-08-20T11:10:15;6.75;;;1.35;;
69783;SDS011;57054;51.978;4.498;2023-08-20T11:12:47;3.15;;;1.30;;
69783;SDS011;57054;51.978;4.498;2023-08-20T11:15:13;3.33;;;1.10;;
69783;SDS011;57054;51.978;4.498;2023-08-20T11:17:42;4.47;;;1.40;;
69783;SDS011;57054;51.978;4.498;2023-08-20T11:20:09;2.80;;;1.15;;
69783;SDS011;57054;51.978;4.498;2023-08-20T11:22:38;3.83;;;1.38;;
69783;SDS011;57054;51.978;4.498;2023-08-20T11:25:05;2.83;;;1.35;;
69783;SDS011;57054;51.978;4.498;2023-08-20T11:27:31;4.55;;;1.33;;
69783;SDS011;57054;51.978;4.498;2023-08-20T11:30:00;3.03;;;0.90;;
69783;SDS011;57054;51.978;4.498;2023-08-20T11:34:50;3.78;;;0.93;;
69783;SDS011;57054;51.978;4.498;2023-08-20T11:37:23;2.72;;;1.00;;
69783;SDS011;57054;51.978;4.498;2023-08-20T11:39:48;4.25;;;1.08;;
69783;SDS011;57054;51.978;4.498;2023-08-20T11:42:14;4.55;;;1.17;;
69783;SDS011;57054;51.978;4.498;2023-08-20T11:44:44;3.05;;;0.85;;
69783;SDS011;57054;51.978;4.498;2023-08-20T11:47:17;2.47;;;1.17;;
69783;SDS011;57054;51.978;4.498;2023-08-20T11:49:44;2.53;;;1.02;;
69783;SDS011;57054;51.978;4.498;2023-08-20T11:52:10;4.20;;;1.13;;
69783;SDS011;57054;51.978;4.498;2023-08-20T11:54:38;2.88;;;0.90;;
69783;SDS011;57054;51.978;4.498;2023-08-20T11:57:04;4.50;;;1.30;;
69783;SDS011;57054;51.978;4.498;2023-08-20T11:59:32;2.83;;;0.98;;
69783;SDS011;57054;51.978;4.498;2023-08-20T12:01:59;4.05;;;0.85;;
69783;SDS011;57054;51.978;4.498;2023-08-20T12:04:27;1.40;;;0.68;;
69783;SDS011;57054;51.978;4.498;2023-08-20T12:09:33;5.30;;;0.90;;
69783;SDS011;57054;51.978;4.498;2023-08-20T12:11:59;4.43;;;0.90;;
69783;SDS011;57054;51.978;4.498;2023-08-20T12:14:26;5.20;;;1.42;;
69783;SDS011;57054;51.978;4.498;2023-08-20T12:16:53;3.38;;;1.23;;
69783;SDS011;57054;51.978;4.498;2023-08-20T12:19:19;3.72;;;1.02;;
69783;SDS011;57054;51.978;4.498;2023-08-20T12:21:44;4.68;;;0.93;;
69783;SDS011;57054;51.978;4.498;2023-08-20T12:24:10;5.15;;;0.93;;
69783;SDS011;57054;51.978;4.498;2023-08-20T12:26:37;2.03;;;1.02;;
69783;SDS011;57054;51.978;4.498;2023-08-20T12:29:03;2.17;;;0.80;;
69783;SDS011;57054;51.978;4.498;2023-08-20T12:31:28;2.78;;;0.98;;
69783;SDS011;57054;51.978;4.498;2023-08-20T12:33:54;3.80;;;0.98;;
69783;SDS011;57054;51.978;4.498;2023-08-20T12:36:19;2.53;;;0.70;;
69783;SDS011;57054;51.978;4.498;2023-08-20T12:38:45;2.65;;;0.88;;
69783;SDS011;57054;51.978;4.498;2023-08-20T12:41:10;3.80;;;1.13;;
69783;SDS011;57054;51.978;4.498;2023-08-20T12:43:36;2.22;;;0.88;;
69783;SDS011;57054;51.978;4.498;2023-08-20T12:46:01;2.92;;;1.13;;
69783;SDS011;57054;51.978;4.498;2023-08-20T12:48:28;3.17;;;1.13;;
69783;SDS011;57054;51.978;4.498;2023-08-20T12:50:54;1.63;;;0.95;;
69783;SDS011;57054;51.978;4.498;2023-08-20T12:53:20;1.60;;;0.90;;
69783;SDS011;57054;51.978;4.498;2023-08-20T12:55:46;2.60;;;1.10;;
69783;SDS011;57054;51.978;4.498;2023-08-20T12:58:11;3.13;;;0.90;;
69783;SDS011;57054;51.978;4.498;2023-08-20T13:00:38;4.65;;;0.98;;
69783;SDS011;57054;51.978;4.498;2023-08-20T13:03:04;2.90;;;1.00;;
69783;SDS011;57054;51.978;4.498;2023-08-20T13:05:30;4.28;;;1.27;;
69783;SDS011;57054;51.978;4.498;2023-08-20T13:07:55;2.92;;;1.10;;
69783;SDS011;57054;51.978;4.498;2023-08-20T13:10:21;3.05;;;1.30;;
69783;SDS011;57054;51.978;4.498;2023-08-20T13:12:48;4.85;;;1.13;;
69783;SDS011;57054;51.978;4.498;2023-08-20T13:15:18;3.17;;;1.02;;
69783;SDS011;57054;51.978;4.498;2023-08-20T13:17:46;3.00;;;0.93;;
69783;SDS011;57054;51.978;4.498;2023-08-20T13:20:13;3.20;;;1.02;;
69783;SDS011;57054;51.978;4.498;2023-08-20T13:22:38;1.15;;;0.70;;
69783;SDS011;57054;51.978;4.498;2023-08-20T13:25:03;3.15;;;1.00;;
69783;SDS011;57054;51.978;4.498;2023-08-20T13:27:30;2.42;;;0.90;;
69783;SDS011;57054;51.978;4.498;2023-08-20T13:29:57;3.95;;;1.15;;
69783;SDS011;57054;51.978;4.498;2023-08-20T13:32:22;1.65;;;0.65;;
69783;SDS011;57054;51.978;4.498;2023-08-20T13:34:49;3.67;;;1.17;;
69783;SDS011;57054;51.978;4.498;2023-08-20T13:37:16;4.28;;;1.02;;
69783;SDS011;57054;51.978;4.498;2023-08-20T13:39:42;2.28;;;0.80;;
69783;SDS011;57054;51.978;4.498;2023-08-20T13:42:07;3.95;;;0.93;;
69783;SDS011;57054;51.978;4.498;2023-08-20T13:44:33;3.88;;;1.33;;
69783;SDS011;57054;51.978;4.498;2023-08-20T13:46:58;3.60;;;1.20;;
69783;SDS011;57054;51.978;4.498;2023-08-20T13:49:25;3.85;;;1.00;;
69783;SDS011;57054;51.978;4.498;2023-08-20T13:51:51;4.40;;;1.20;;
69783;SDS011;57054;51.978;4.498;2023-08-20T13:54:16;3.60;;;1.00;;
69783;SDS011;57054;51.978;4.498;2023-08-20T13:56:42;2.28;;;0.80;;
69783;SDS011;57054;51.978;4.498;2023-08-20T13:59:09;3.95;;;0.93;;
69783;SDS011;57054;51.978;4.498;2023-08-20T14:01:34;3.53;;;1.00;;
69783;SDS011;57054;51.978;4.498;2023-08-20T14:04:00;2.42;;;0.90;;
69783;SDS011;57054;51.978;4.498;2023-08-20T14:06:25;5.97;;;1.15;;
69783;SDS011;57054;51.978;4.498;2023-08-20T14:08:51;3.30;;;1.20;;
69783;SDS011;57054;51.978;4.498;2023-08-20T14:11:16;2.55;;;0.95;;
69783;SDS011;57054;51.978;4.498;2023-08-20T14:13:42;2.03;;;0.70;;
69783;SDS011;57054;51.978;4.498;2023-08-20T14:16:07;2.85;;;0.90;;
69783;SDS011;57054;51.978;4.498;2023-08-20T14:18:36;3.97;;;1.13;;
69783;SDS011;57054;51.978;4.498;2023-08-20T14:23:28;2.63;;;1.00;;
69783;SDS011;57054;51.978;4.498;2023-08-20T14:25:55;2.20;;;1.05;;
69783;SDS011;57054;51.978;4.498;2023-08-20T14:28:21;3.28;;;1.00;;
69783;SDS011;57054;51.978;4.498;2023-08-20T14:30:47;4.20;;;1.20;;
69783;SDS011;57054;51.978;4.498;2023-08-20T14:33:14;3.70;;;1.00;;
69783;SDS011;57054;51.978;4.498;2023-08-20T14:35:39;3.13;;;1.00;;
69783;SDS011;57054;51.978;4.498;2023-08-20T14:38:05;3.38;;;1.27;;
69783;SDS011;57054;51.978;4.498;2023-08-20T14:40:35;3.03;;;0.90;;
69783;SDS011;57054;51.978;4.498;2023-08-20T14:43:01;2.35;;;1.08;;
69783;SDS011;57054;51.978;4.498;2023-08-20T14:45:28;4.53;;;1.00;;
69783;SDS011;57054;51.978;4.498;2023-08-20T14:47:54;3.47;;;1.02;;
69783;SDS011;57054;51.978;4.498;2023-08-20T14:50:19;2.10;;;0.95;;
69783;SDS011;57054;51.978;4.498;2023-08-20T14:52:44;5.50;;;1.83;;
69783;SDS011;57054;51.978;4.498;2023-08-20T14:55:16;4.40;;;1.02;;
69783;SDS011;57054;51.978;4.498;2023-08-20T14:57:42;3.72;;;0.95;;
69783;SDS011;57054;51.978;4.498;2023-08-20T15:00:07;5.60;;;1.42;;
69783;SDS011;57054;51.978;4.498;2023-08-20T15:02:33;5.88;;;1.30;;
69783;SDS011;57054;51.978;4.498;2023-08-20T15:04:59;3.30;;;1.00;;
69783;SDS011;57054;51.978;4.498;2023-08-20T15:07:25;3.55;;;1.13;;